sensor_id;sensor_type;location;lat;lon;timestamp;temperature;humidity
52103;DHT22;38101;53.126;6.878;2022-12-18T00:01:35;-2.00;99.90
52103;DHT22;38101;53.126;6.878;2022-12-18T00:04:04;-2.00;99.90
52103;DHT22;38101;53.126;6.878;2022-12-18T00:06:30;-2.00;99.90
52103;DHT22;38101;53.126;6.878;2022-12-18T00:08:57;-2.00;99.90
52103;DHT22;38101;53.126;6.878;2022-12-18T00:11:25;-2.00;99.90
52103;DHT22;38101;53.126;6.878;2022-12-18T00:13:53;-2.10;99.90
52103;DHT22;38101;53.126;6.878;2022-12-18T00:16:22;-2.10;99.90
52103;DHT22;38101;53.126;6.878;2022-12-18T00:18:50;-2.10;99.90
52103;DHT22;38101;53.126;6.878;2022-12-18T00:21:16;-2.10;99.90
52103;DHT22;38101;53.126;6.878;2022-12-18T00:23:43;-2.10;99.90
52103;DHT22;38101;53.126;6.878;2022-12-18T00:26:14;-2.20;99.90
52103;DHT22;38101;53.126;6.878;2022-12-18T00:28:41;-2.10;99.90
52103;DHT22;38101;53.126;6.878;2022-12-18T00:31:11;-2.20;99.90
52103;DHT22;38101;53.126;6.878;2022-12-18T00:33:38;-2.20;99.90
52103;DHT22;38101;53.126;6.878;2022-12-18T00:36:27;-2.20;99.90
52103;DHT22;38101;53.126;6.878;2022-12-18T00:38:54;-2.20;99.90
52103;DHT22;38101;53.126;6.878;2022-12-18T00:41:20;-2.20;99.90
52103;DHT22;38101;53.126;6.878;2022-12-18T00:44:07;-2.20;99.90
52103;DHT22;38101;53.126;6.878;2022-12-18T00:46:33;-2.20;99.90
52103;DHT22;38101;53.126;6.878;2022-12-18T00:48:59;-2.30;99.90
52103;DHT22;38101;53.126;6.878;2022-12-18T00:51:25;-2.20;99.90
52103;DHT22;38101;53.126;6.878;2022-12-18T00:53:52;-2.20;99.90
52103;DHT22;38101;53.126;6.878;2022-12-18T00:56:21;-2.20;99.90
52103;DHT22;38101;53.126;6.878;2022-12-18T00:58:47;-2.20;99.90
52103;DHT22;38101;53.126;6.878;2022-12-18T01:01:13;-2.20;99.90
52103;DHT22;38101;53.126;6.878;2022-12-18T01:03:38;-2.30;99.90
52103;DHT22;38101;53.126;6.878;2022-12-18T01:06:09;-2.40;99.90
52103;DHT22;38101;53.126;6.878;2022-12-18T01:08:35;-2.30;99.90
52103;DHT22;38101;53.126;6.878;2022-12-18T01:11:07;-2.40;99.90
52103;DHT22;38101;53.126;6.878;2022-12-18T01:13:33;-2.40;99.90
52103;DHT22;38101;53.126;6.878;2022-12-18T01:15:58;-2.40;99.90
52103;DHT22;38101;53.126;6.878;2022-12-18T01:18:24;-2.30;99.90
52103;DHT22;38101;53.126;6.878;2022-12-18T01:20:50;-2.30;99.90
52103;DHT22;38101;53.126;6.878;2022-12-18T01:23:15;-2.30;99.90
52103;DHT22;38101;53.126;6.878;2022-12-18T01:25:41;-2.30;99.90
52103;DHT22;38101;53.126;6.878;2022-12-18T01:28:07;-2.30;99.90
52103;DHT22;38101;53.126;6.878;2022-12-18T01:30:32;-2.40;99.90
52103;DHT22;38101;53.126;6.878;2022-12-18T01:32:58;-2.40;99.90
52103;DHT22;38101;53.126;6.878;2022-12-18T01:35:24;-2.40;99.90
52103;DHT22;38101;53.126;6.878;2022-12-18T01:37:49;-2.50;99.90
52103;DHT22;38101;53.126;6.878;2022-12-18T01:40:19;-2.50;99.90
52103;DHT22;38101;53.126;6.878;2022-12-18T01:42:44;-2.50;99.90
52103;DHT22;38101;53.126;6.878;2022-12-18T01:50:13;-2.40;99.90
52103;DHT22;38101;53.126;6.878;2022-12-18T01:52:51;-2.40;99.90
52103;DHT22;38101;53.126;6.878;2022-12-18T01:55:20;-2.40;99.90
52103;DHT22;38101;53.126;6.878;2022-12-18T01:57:48;-2.40;99.90
52103;DHT22;38101;53.126;6.878;2022-12-18T02:00:18;-2.30;99.90
52103;DHT22;38101;53.126;6.878;2022-12-18T02:02:45;-2.30;99.90
52103;DHT22;38101;53.126;6.878;2022-12-18T02:05:14;-2.30;99.90
52103;DHT22;38101;53.126;6.878;2022-12-18T02:10:24;-2.30;99.90
52103;DHT22;38101;53.126;6.878;2022-12-18T02:16:08;-2.30;99.90
52103;DHT22;38101;53.126;6.878;2022-12-18T02:18:39;-2.30;99.90
52103;DHT22;38101;53.126;6.878;2022-12-18T02:29:03;-2.30;99.90
52103;DHT22;38101;53.126;6.878;2022-12-18T02:31:36;-2.30;99.90
52103;DHT22;38101;53.126;6.878;2022-12-18T02:34:06;-2.30;99.90
52103;DHT22;38101;53.126;6.878;2022-12-18T02:36:36;-2.40;99.90
52103;DHT22;38101;53.126;6.878;2022-12-18T02:39:03;-2.40;99.90
52103;DHT22;38101;53.126;6.878;2022-12-18T02:41:31;-2.40;99.90
52103;DHT22;38101;53.126;6.878;2022-12-18T02:44:00;-2.50;99.90
52103;DHT22;38101;53.126;6.878;2022-12-18T02:46:36;-2.50;99.90
52103;DHT22;38101;53.126;6.878;2022-12-18T02:55:35;-2.50;99.90
52103;DHT22;38101;53.126;6.878;2022-12-18T02:58:35;-2.60;99.90
52103;DHT22;38101;53.126;6.878;2022-12-18T03:01:27;-2.60;99.90
52103;DHT22;38101;53.126;6.878;2022-12-18T03:04:16;-2.60;99.90
52103;DHT22;38101;53.126;6.878;2022-12-18T03:06:48;-2.60;99.90
52103;DHT22;38101;53.126;6.878;2022-12-18T03:09:19;-2.70;99.90
52103;DHT22;38101;53.126;6.878;2022-12-18T03:11:53;-2.60;99.90
52103;DHT22;38101;53.126;6.878;2022-12-18T03:14:38;-2.70;99.90
52103;DHT22;38101;53.126;6.878;2022-12-18T03:17:09;-2.70;99.90
52103;DHT22;38101;53.126;6.878;2022-12-18T03:19:38;-2.70;99.90
52103;DHT22;38101;53.126;6.878;2022-12-18T03:22:06;-2.70;99.90
52103;DHT22;38101;53.126;6.878;2022-12-18T03:24:33;-2.60;99.90
52103;DHT22;38101;53.126;6.878;2022-12-18T03:27:06;-2.60;99.90
52103;DHT22;38101;53.126;6.878;2022-12-18T03:29:51;-2.60;99.90
52103;DHT22;38101;53.126;6.878;2022-12-18T03:32:31;-2.60;99.90
52103;DHT22;38101;53.126;6.878;2022-12-18T03:35:01;-2.60;99.90
52103;DHT22;38101;53.126;6.878;2022-12-18T03:37:28;-2.70;99.90
52103;DHT22;38101;53.126;6.878;2022-12-18T03:39:54;-2.70;99.90
52103;DHT22;38101;53.126;6.878;2022-12-18T03:42:40;-2.70;99.90
52103;DHT22;38101;53.126;6.878;2022-12-18T03:45:35;-2.80;99.90
52103;DHT22;38101;53.126;6.878;2022-12-18T03:48:16;-2.80;99.90
52103;DHT22;38101;53.126;6.878;2022-12-18T03:50:59;-2.90;99.90
52103;DHT22;38101;53.126;6.878;2022-12-18T03:53:34;-2.90;99.90
52103;DHT22;38101;53.126;6.878;2022-12-18T03:56:03;-2.90;99.90
52103;DHT22;38101;53.126;6.878;2022-12-18T03:58:31;-3.00;99.90
52103;DHT22;38101;53.126;6.878;2022-12-18T04:01:01;-3.00;99.90
52103;DHT22;38101;53.126;6.878;2022-12-18T04:03:29;-3.00;99.90
52103;DHT22;38101;53.126;6.878;2022-12-18T04:05:59;-3.00;99.90
52103;DHT22;38101;53.126;6.878;2022-12-18T04:08:25;-3.00;99.90
52103;DHT22;38101;53.126;6.878;2022-12-18T04:10:51;-3.00;99.90
52103;DHT22;38101;53.126;6.878;2022-12-18T04:13:27;-3.10;99.90
52103;DHT22;38101;53.126;6.878;2022-12-18T04:15:53;-3.10;99.90
52103;DHT22;38101;53.126;6.878;2022-12-18T04:18:19;-3.10;99.90
52103;DHT22;38101;53.126;6.878;2022-12-18T04:20:45;-3.20;99.90
52103;DHT22;38101;53.126;6.878;2022-12-18T04:23:11;-3.20;99.90
52103;DHT22;38101;53.126;6.878;2022-12-18T04:25:36;-3.20;99.90
52103;DHT22;38101;53.126;6.878;2022-12-18T04:28:02;-3.20;99.90
52103;DHT22;38101;53.126;6.878;2022-12-18T04:30:28;-3.20;99.90
52103;DHT22;38101;53.126;6.878;2022-12-18T04:32:53;-3.20;99.90
52103;DHT22;38101;53.126;6.878;2022-12-18T04:35:19;-3.20;99.90
52103;DHT22;38101;53.126;6.878;2022-12-18T04:37:45;-3.20;99.90
52103;DHT22;38101;53.126;6.878;2022-12-18T04:40:11;-3.20;99.90
52103;DHT22;38101;53.126;6.878;2022-12-18T04:42:37;-3.20;99.90
52103;DHT22;38101;53.126;6.878;2022-12-18T04:45:04;-3.20;99.90
52103;DHT22;38101;53.126;6.878;2022-12-18T04:47:30;-3.20;99.90
52103;DHT22;38101;53.126;6.878;2022-12-18T04:49:56;-3.20;99.90
52103;DHT22;38101;53.126;6.878;2022-12-18T04:52:22;-3.20;99.90
52103;DHT22;38101;53.126;6.878;2022-12-18T04:54:47;-3.20;99.90
52103;DHT22;38101;53.126;6.878;2022-12-18T04:57:13;-3.30;99.90
52103;DHT22;38101;53.126;6.878;2022-12-18T04:59:39;-3.30;99.90
52103;DHT22;38101;53.126;6.878;2022-12-18T05:02:05;-3.30;99.90
52103;DHT22;38101;53.126;6.878;2022-12-18T05:04:31;-3.40;99.90
52103;DHT22;38101;53.126;6.878;2022-12-18T05:06:56;-3.40;99.90
52103;DHT22;38101;53.126;6.878;2022-12-18T05:09:22;-3.40;99.90
52103;DHT22;38101;53.126;6.878;2022-12-18T05:11:48;-3.40;99.90
52103;DHT22;38101;53.126;6.878;2022-12-18T05:14:15;-3.40;99.90
52103;DHT22;38101;53.126;6.878;2022-12-18T05:16:40;-3.50;99.90
52103;DHT22;38101;53.126;6.878;2022-12-18T05:19:06;-3.50;99.90
52103;DHT22;38101;53.126;6.878;2022-12-18T05:21:32;-3.40;99.90
52103;DHT22;38101;53.126;6.878;2022-12-18T05:23:57;-3.50;99.90
52103;DHT22;38101;53.126;6.878;2022-12-18T05:26:23;-3.50;99.90
52103;DHT22;38101;53.126;6.878;2022-12-18T05:28:49;-3.50;99.90
52103;DHT22;38101;53.126;6.878;2022-12-18T05:31:14;-3.50;99.90
52103;DHT22;38101;53.126;6.878;2022-12-18T05:33:40;-3.60;99.90
52103;DHT22;38101;53.126;6.878;2022-12-18T05:36:07;-3.50;99.90
52103;DHT22;38101;53.126;6.878;2022-12-18T05:38:35;-3.50;99.90
52103;DHT22;38101;53.126;6.878;2022-12-18T05:41:02;-3.60;99.90
52103;DHT22;38101;53.126;6.878;2022-12-18T05:43:28;-3.50;99.90
52103;DHT22;38101;53.126;6.878;2022-12-18T05:45:54;-3.60;99.90
52103;DHT22;38101;53.126;6.878;2022-12-18T05:48:21;-3.60;99.90
52103;DHT22;38101;53.126;6.878;2022-12-18T05:50:48;-3.60;99.90
52103;DHT22;38101;53.126;6.878;2022-12-18T05:53:16;-3.60;99.90
52103;DHT22;38101;53.126;6.878;2022-12-18T05:55:43;-3.60;99.90
52103;DHT22;38101;53.126;6.878;2022-12-18T05:58:10;-3.60;99.90
52103;DHT22;38101;53.126;6.878;2022-12-18T06:00:38;-3.60;99.90
52103;DHT22;38101;53.126;6.878;2022-12-18T06:03:10;-3.60;99.90
52103;DHT22;38101;53.126;6.878;2022-12-18T06:05:39;-3.50;99.90
52103;DHT22;38101;53.126;6.878;2022-12-18T06:08:05;-3.60;99.90
52103;DHT22;38101;53.126;6.878;2022-12-18T06:10:31;-3.60;99.90
52103;DHT22;38101;53.126;6.878;2022-12-18T06:12:57;-3.60;99.90
52103;DHT22;38101;53.126;6.878;2022-12-18T06:15:23;-3.60;99.90
52103;DHT22;38101;53.126;6.878;2022-12-18T06:17:49;-3.60;99.90
52103;DHT22;38101;53.126;6.878;2022-12-18T06:20:16;-3.60;99.90
52103;DHT22;38101;53.126;6.878;2022-12-18T06:22:41;-3.60;99.90
52103;DHT22;38101;53.126;6.878;2022-12-18T06:25:07;-3.60;99.90
52103;DHT22;38101;53.126;6.878;2022-12-18T06:27:33;-3.60;99.90
52103;DHT22;38101;53.126;6.878;2022-12-18T06:29:59;-3.60;99.90
52103;DHT22;38101;53.126;6.878;2022-12-18T06:32:25;-3.70;99.90
52103;DHT22;38101;53.126;6.878;2022-12-18T06:34:51;-3.70;99.90
52103;DHT22;38101;53.126;6.878;2022-12-18T06:37:17;-3.70;99.90
52103;DHT22;38101;53.126;6.878;2022-12-18T06:39:42;-3.70;99.90
52103;DHT22;38101;53.126;6.878;2022-12-18T06:42:08;-3.70;99.90
52103;DHT22;38101;53.126;6.878;2022-12-18T06:44:34;-3.70;99.90
52103;DHT22;38101;53.126;6.878;2022-12-18T06:46:59;-3.70;99.90
52103;DHT22;38101;53.126;6.878;2022-12-18T06:49:25;-3.70;99.90
52103;DHT22;38101;53.126;6.878;2022-12-18T06:51:51;-3.70;99.90
52103;DHT22;38101;53.126;6.878;2022-12-18T06:54:17;-3.70;99.90
52103;DHT22;38101;53.126;6.878;2022-12-18T06:56:45;-3.70;99.90
52103;DHT22;38101;53.126;6.878;2022-12-18T06:59:11;-3.70;99.90
52103;DHT22;38101;53.126;6.878;2022-12-18T07:01:37;-3.80;99.90
52103;DHT22;38101;53.126;6.878;2022-12-18T07:04:03;-3.80;99.90
52103;DHT22;38101;53.126;6.878;2022-12-18T07:06:28;-3.80;99.90
52103;DHT22;38101;53.126;6.878;2022-12-18T07:08:54;-3.70;99.90
52103;DHT22;38101;53.126;6.878;2022-12-18T07:11:20;-3.80;99.90
52103;DHT22;38101;53.126;6.878;2022-12-18T07:13:47;-3.90;99.90
52103;DHT22;38101;53.126;6.878;2022-12-18T07:16:16;-3.90;99.90
52103;DHT22;38101;53.126;6.878;2022-12-18T07:18:42;-3.80;99.90
52103;DHT22;38101;53.126;6.878;2022-12-18T07:21:13;-3.80;99.90
52103;DHT22;38101;53.126;6.878;2022-12-18T07:23:39;-3.90;99.90
52103;DHT22;38101;53.126;6.878;2022-12-18T07:26:07;-3.80;99.90
52103;DHT22;38101;53.126;6.878;2022-12-18T07:28:34;-3.80;99.90
52103;DHT22;38101;53.126;6.878;2022-12-18T07:31:04;-3.90;99.90
52103;DHT22;38101;53.126;6.878;2022-12-18T07:33:30;-3.90;99.90
52103;DHT22;38101;53.126;6.878;2022-12-18T07:35:55;-3.90;99.90
52103;DHT22;38101;53.126;6.878;2022-12-18T07:38:22;-3.90;99.90
52103;DHT22;38101;53.126;6.878;2022-12-18T07:40:47;-3.90;99.90
52103;DHT22;38101;53.126;6.878;2022-12-18T07:43:13;-3.90;99.90
52103;DHT22;38101;53.126;6.878;2022-12-18T07:45:39;-4.00;99.90
52103;DHT22;38101;53.126;6.878;2022-12-18T07:48:05;-3.90;99.90
52103;DHT22;38101;53.126;6.878;2022-12-18T07:50:30;-3.90;99.90
52103;DHT22;38101;53.126;6.878;2022-12-18T07:52:56;-3.90;99.90
52103;DHT22;38101;53.126;6.878;2022-12-18T07:55:22;-3.80;99.90
52103;DHT22;38101;53.126;6.878;2022-12-18T07:57:47;-3.90;99.90
52103;DHT22;38101;53.126;6.878;2022-12-18T08:00:13;-3.80;99.90
52103;DHT22;38101;53.126;6.878;2022-12-18T08:02:39;-3.80;99.90
52103;DHT22;38101;53.126;6.878;2022-12-18T08:05:05;-3.90;99.90
52103;DHT22;38101;53.126;6.878;2022-12-18T08:07:31;-3.90;99.90
52103;DHT22;38101;53.126;6.878;2022-12-18T08:09:56;-3.90;99.90
52103;DHT22;38101;53.126;6.878;2022-12-18T08:12:22;-3.90;99.90
52103;DHT22;38101;53.126;6.878;2022-12-18T08:14:48;-3.90;99.90
52103;DHT22;38101;53.126;6.878;2022-12-18T08:17:13;-3.80;99.90
52103;DHT22;38101;53.126;6.878;2022-12-18T08:19:39;-3.80;99.90
52103;DHT22;38101;53.126;6.878;2022-12-18T08:22:05;-3.80;99.90
52103;DHT22;38101;53.126;6.878;2022-12-18T08:24:31;-3.70;99.90
52103;DHT22;38101;53.126;6.878;2022-12-18T08:26:56;-3.80;99.90
52103;DHT22;38101;53.126;6.878;2022-12-18T08:29:22;-3.80;99.90
52103;DHT22;38101;53.126;6.878;2022-12-18T08:31:48;-3.70;99.90
52103;DHT22;38101;53.126;6.878;2022-12-18T08:34:14;-3.70;99.90
52103;DHT22;38101;53.126;6.878;2022-12-18T08:36:40;-3.70;99.90
52103;DHT22;38101;53.126;6.878;2022-12-18T08:39:06;-3.60;99.90
52103;DHT22;38101;53.126;6.878;2022-12-18T08:41:31;-3.70;99.90
52103;DHT22;38101;53.126;6.878;2022-12-18T08:43:57;-3.70;99.90
52103;DHT22;38101;53.126;6.878;2022-12-18T08:46:43;-3.70;99.90
52103;DHT22;38101;53.126;6.878;2022-12-18T08:49:10;-3.80;99.90
52103;DHT22;38101;53.126;6.878;2022-12-18T08:51:36;-3.80;99.90
52103;DHT22;38101;53.126;6.878;2022-12-18T08:54:03;-3.80;99.90
52103;DHT22;38101;53.126;6.878;2022-12-18T08:56:29;-3.80;99.90
52103;DHT22;38101;53.126;6.878;2022-12-18T08:58:55;-3.80;99.90
52103;DHT22;38101;53.126;6.878;2022-12-18T09:01:21;-3.70;99.90
52103;DHT22;38101;53.126;6.878;2022-12-18T09:03:48;-3.70;99.90
52103;DHT22;38101;53.126;6.878;2022-12-18T09:06:16;-3.70;99.90
52103;DHT22;38101;53.126;6.878;2022-12-18T09:08:43;-3.60;99.90
52103;DHT22;38101;53.126;6.878;2022-12-18T09:11:24;-3.60;99.90
52103;DHT22;38101;53.126;6.878;2022-12-18T09:13:50;-3.50;99.90
52103;DHT22;38101;53.126;6.878;2022-12-18T09:16:16;-3.50;99.90
52103;DHT22;38101;53.126;6.878;2022-12-18T09:18:42;-3.50;99.90
52103;DHT22;38101;53.126;6.878;2022-12-18T09:21:13;-3.50;99.90
52103;DHT22;38101;53.126;6.878;2022-12-18T09:23:39;-3.50;99.90
52103;DHT22;38101;53.126;6.878;2022-12-18T09:26:05;-3.50;99.90
52103;DHT22;38101;53.126;6.878;2022-12-18T09:28:30;-3.40;99.90
52103;DHT22;38101;53.126;6.878;2022-12-18T09:30:56;-3.40;99.90
52103;DHT22;38101;53.126;6.878;2022-12-18T09:33:22;-3.30;99.90
52103;DHT22;38101;53.126;6.878;2022-12-18T09:35:47;-3.30;99.90
52103;DHT22;38101;53.126;6.878;2022-12-18T09:38:16;-3.20;99.90
52103;DHT22;38101;53.126;6.878;2022-12-18T09:40:53;-3.20;99.90
52103;DHT22;38101;53.126;6.878;2022-12-18T09:43:40;-3.20;99.90
52103;DHT22;38101;53.126;6.878;2022-12-18T09:46:17;-3.10;99.90
52103;DHT22;38101;53.126;6.878;2022-12-18T09:48:48;-3.10;99.90
52103;DHT22;38101;53.126;6.878;2022-12-18T09:51:32;-3.10;99.90
52103;DHT22;38101;53.126;6.878;2022-12-18T09:54:02;-3.00;99.90
52103;DHT22;38101;53.126;6.878;2022-12-18T09:56:34;-3.00;99.90
52103;DHT22;38101;53.126;6.878;2022-12-18T09:59:02;-2.90;99.90
52103;DHT22;38101;53.126;6.878;2022-12-18T10:01:30;-2.90;99.90
52103;DHT22;38101;53.126;6.878;2022-12-18T10:03:56;-2.80;99.90
52103;DHT22;38101;53.126;6.878;2022-12-18T10:06:46;-2.80;99.90
52103;DHT22;38101;53.126;6.878;2022-12-18T10:09:44;-2.70;99.90
52103;DHT22;38101;53.126;6.878;2022-12-18T10:12:26;-2.70;99.90
52103;DHT22;38101;53.126;6.878;2022-12-18T10:15:12;-2.70;99.90
52103;DHT22;38101;53.126;6.878;2022-12-18T10:17:53;-2.60;99.90
52103;DHT22;38101;53.126;6.878;2022-12-18T10:23:26;-2.60;99.90
52103;DHT22;38101;53.126;6.878;2022-12-18T10:26:06;-2.50;99.90
52103;DHT22;38101;53.126;6.878;2022-12-18T10:28:36;-2.50;99.90
52103;DHT22;38101;53.126;6.878;2022-12-18T10:31:02;-2.50;99.90
52103;DHT22;38101;53.126;6.878;2022-12-18T10:33:31;-2.50;99.90
52103;DHT22;38101;53.126;6.878;2022-12-18T10:35:58;-2.50;99.90
52103;DHT22;38101;53.126;6.878;2022-12-18T10:38:25;-2.40;99.90
52103;DHT22;38101;53.126;6.878;2022-12-18T10:46:00;-2.30;99.90
52103;DHT22;38101;53.126;6.878;2022-12-18T10:48:26;-2.20;99.90
52103;DHT22;38101;53.126;6.878;2022-12-18T10:50:53;-2.20;99.90
52103;DHT22;38101;53.126;6.878;2022-12-18T10:53:27;-2.20;99.90
52103;DHT22;38101;53.126;6.878;2022-12-18T10:55:54;-2.20;99.90
52103;DHT22;38101;53.126;6.878;2022-12-18T10:58:35;-2.10;99.90
52103;DHT22;38101;53.126;6.878;2022-12-18T11:01:08;-2.10;99.90
52103;DHT22;38101;53.126;6.878;2022-12-18T11:06:20;-2.10;99.90
52103;DHT22;38101;53.126;6.878;2022-12-18T11:09:21;-2.00;99.90
52103;DHT22;38101;53.126;6.878;2022-12-18T11:11:52;-2.00;99.90
52103;DHT22;38101;53.126;6.878;2022-12-18T11:14:24;-2.00;99.90
52103;DHT22;38101;53.126;6.878;2022-12-18T11:16:51;-2.00;99.90
52103;DHT22;38101;53.126;6.878;2022-12-18T11:19:30;-1.90;99.90
52103;DHT22;38101;53.126;6.878;2022-12-18T11:21:57;-1.90;99.90
52103;DHT22;38101;53.126;6.878;2022-12-18T11:24:34;-1.90;99.90
52103;DHT22;38101;53.126;6.878;2022-12-18T11:27:02;-1.90;99.90
52103;DHT22;38101;53.126;6.878;2022-12-18T11:29:39;-1.80;99.90
52103;DHT22;38101;53.126;6.878;2022-12-18T11:37:31;-1.70;99.90
52103;DHT22;38101;53.126;6.878;2022-12-18T11:40:11;-1.70;99.90
52103;DHT22;38101;53.126;6.878;2022-12-18T11:42:52;-1.70;99.90
52103;DHT22;38101;53.126;6.878;2022-12-18T11:48:04;-1.60;99.90
52103;DHT22;38101;53.126;6.878;2022-12-18T11:50:52;-1.60;99.90
52103;DHT22;38101;53.126;6.878;2022-12-18T11:53:19;-1.50;99.90
52103;DHT22;38101;53.126;6.878;2022-12-18T12:03:51;-1.40;99.90
52103;DHT22;38101;53.126;6.878;2022-12-18T12:12:10;-1.40;99.90
52103;DHT22;38101;53.126;6.878;2022-12-18T12:15:13;-1.40;99.90
52103;DHT22;38101;53.126;6.878;2022-12-18T12:20:56;-1.40;99.90
52103;DHT22;38101;53.126;6.878;2022-12-18T12:39:14;-1.20;99.90
52103;DHT22;38101;53.126;6.878;2022-12-18T12:41:42;-1.20;99.90
52103;DHT22;38101;53.126;6.878;2022-12-18T12:44:33;-1.10;99.90
52103;DHT22;38101;53.126;6.878;2022-12-18T12:47:10;-1.10;99.90
52103;DHT22;38101;53.126;6.878;2022-12-18T12:49:39;-1.10;99.90
52103;DHT22;38101;53.126;6.878;2022-12-18T12:52:10;-1.10;99.90
52103;DHT22;38101;53.126;6.878;2022-12-18T12:54:38;-1.10;99.90
52103;DHT22;38101;53.126;6.878;2022-12-18T13:00:03;-1.00;99.90
52103;DHT22;38101;53.126;6.878;2022-12-18T13:02:51;-1.00;99.90
52103;DHT22;38101;53.126;6.878;2022-12-18T13:05:29;-1.00;99.90
52103;DHT22;38101;53.126;6.878;2022-12-18T13:08:09;-1.00;99.90
52103;DHT22;38101;53.126;6.878;2022-12-18T13:10:38;-1.00;99.90
52103;DHT22;38101;53.126;6.878;2022-12-18T13:13:09;-0.90;99.90
52103;DHT22;38101;53.126;6.878;2022-12-18T13:18:26;-0.90;99.90
52103;DHT22;38101;53.126;6.878;2022-12-18T13:25:50;-0.80;99.90
52103;DHT22;38101;53.126;6.878;2022-12-18T13:28:20;-0.80;99.90
52103;DHT22;38101;53.126;6.878;2022-12-18T13:30:57;-0.80;99.90
52103;DHT22;38101;53.126;6.878;2022-12-18T13:38:39;-0.70;99.90
52103;DHT22;38101;53.126;6.878;2022-12-18T13:41:24;-0.70;99.90
52103;DHT22;38101;53.126;6.878;2022-12-18T13:43:52;-0.70;99.90
52103;DHT22;38101;53.126;6.878;2022-12-18T13:46:41;-0.70;99.90
52103;DHT22;38101;53.126;6.878;2022-12-18T13:51:44;-0.70;99.90
52103;DHT22;38101;53.126;6.878;2022-12-18T13:54:30;-0.70;99.90
52103;DHT22;38101;53.126;6.878;2022-12-18T13:56:58;-0.70;99.90
52103;DHT22;38101;53.126;6.878;2022-12-18T13:59:26;-0.80;99.90
52103;DHT22;38101;53.126;6.878;2022-12-18T14:01:57;-0.70;99.90
52103;DHT22;38101;53.126;6.878;2022-12-18T14:04:28;-0.80;99.90
52103;DHT22;38101;53.126;6.878;2022-12-18T14:07:01;-0.80;99.90
52103;DHT22;38101;53.126;6.878;2022-12-18T14:09:39;-0.70;99.90
52103;DHT22;38101;53.126;6.878;2022-12-18T14:12:06;-0.80;99.90
52103;DHT22;38101;53.126;6.878;2022-12-18T14:14:52;-0.80;99.90
52103;DHT22;38101;53.126;6.878;2022-12-18T14:17:19;-0.80;99.90
52103;DHT22;38101;53.126;6.878;2022-12-18T14:19:47;-0.90;99.90
52103;DHT22;38101;53.126;6.878;2022-12-18T14:22:24;-0.80;99.90
52103;DHT22;38101;53.126;6.878;2022-12-18T14:27:46;-0.90;99.90
52103;DHT22;38101;53.126;6.878;2022-12-18T14:33:14;-0.90;99.90
52103;DHT22;38101;53.126;6.878;2022-12-18T14:35:43;-1.00;99.90
52103;DHT22;38101;53.126;6.878;2022-12-18T14:38:11;-1.00;99.90
52103;DHT22;38101;53.126;6.878;2022-12-18T14:40:37;-1.00;99.90
52103;DHT22;38101;53.126;6.878;2022-12-18T14:43:03;-1.00;99.90
52103;DHT22;38101;53.126;6.878;2022-12-18T14:45:39;-1.00;99.90
52103;DHT22;38101;53.126;6.878;2022-12-18T14:48:17;-1.00;99.90
52103;DHT22;38101;53.126;6.878;2022-12-18T14:50:45;-1.10;99.90
52103;DHT22;38101;53.126;6.878;2022-12-18T14:53:42;-1.10;99.90
52103;DHT22;38101;53.126;6.878;2022-12-18T14:56:18;-1.00;99.90
52103;DHT22;38101;53.126;6.878;2022-12-18T14:58:59;-1.10;99.90
52103;DHT22;38101;53.126;6.878;2022-12-18T15:01:37;-1.10;99.90
52103;DHT22;38101;53.126;6.878;2022-12-18T15:04:18;-1.10;99.90
52103;DHT22;38101;53.126;6.878;2022-12-18T15:06:48;-1.10;99.90
52103;DHT22;38101;53.126;6.878;2022-12-18T15:09:25;-1.10;99.90
52103;DHT22;38101;53.126;6.878;2022-12-18T15:12:00;-1.10;99.90
52103;DHT22;38101;53.126;6.878;2022-12-18T15:14:41;-1.10;99.90
52103;DHT22;38101;53.126;6.878;2022-12-18T15:17:23;-1.20;99.90
52103;DHT22;38101;53.126;6.878;2022-12-18T15:19:52;-1.20;99.90
52103;DHT22;38101;53.126;6.878;2022-12-18T15:22:25;-1.10;99.90
52103;DHT22;38101;53.126;6.878;2022-12-18T15:24:52;-1.10;99.90
52103;DHT22;38101;53.126;6.878;2022-12-18T15:27:25;-1.20;99.90
52103;DHT22;38101;53.126;6.878;2022-12-18T15:32:32;-1.20;99.90
52103;DHT22;38101;53.126;6.878;2022-12-18T15:35:17;-1.20;99.90
52103;DHT22;38101;53.126;6.878;2022-12-18T15:37:43;-1.20;99.90
52103;DHT22;38101;53.126;6.878;2022-12-18T15:40:18;-1.20;99.90
52103;DHT22;38101;53.126;6.878;2022-12-18T15:42:45;-1.20;99.90
52103;DHT22;38101;53.126;6.878;2022-12-18T15:45:30;-1.20;99.90
52103;DHT22;38101;53.126;6.878;2022-12-18T15:47:57;-1.20;99.90
52103;DHT22;38101;53.126;6.878;2022-12-18T15:50:23;-1.20;99.90
52103;DHT22;38101;53.126;6.878;2022-12-18T15:52:51;-1.20;99.90
52103;DHT22;38101;53.126;6.878;2022-12-18T15:55:20;-1.20;99.90
52103;DHT22;38101;53.126;6.878;2022-12-18T15:58:05;-1.20;99.90
52103;DHT22;38101;53.126;6.878;2022-12-18T16:00:32;-1.10;99.90
52103;DHT22;38101;53.126;6.878;2022-12-18T16:02:59;-1.10;99.90
52103;DHT22;38101;53.126;6.878;2022-12-18T16:05:26;-1.20;99.90
52103;DHT22;38101;53.126;6.878;2022-12-18T16:07:52;-1.20;99.90
52103;DHT22;38101;53.126;6.878;2022-12-18T16:10:18;-1.20;99.90
52103;DHT22;38101;53.126;6.878;2022-12-18T16:12:44;-1.20;99.90
52103;DHT22;38101;53.126;6.878;2022-12-18T16:15:12;-1.20;99.90
52103;DHT22;38101;53.126;6.878;2022-12-18T16:17:39;-1.20;99.90
52103;DHT22;38101;53.126;6.878;2022-12-18T16:20:08;-1.20;99.90
52103;DHT22;38101;53.126;6.878;2022-12-18T16:22:37;-1.10;99.90
52103;DHT22;38101;53.126;6.878;2022-12-18T16:25:02;-1.10;99.90
52103;DHT22;38101;53.126;6.878;2022-12-18T16:27:30;-1.10;99.90
52103;DHT22;38101;53.126;6.878;2022-12-18T16:29:56;-1.10;99.90
52103;DHT22;38101;53.126;6.878;2022-12-18T16:32:22;-1.10;99.90
52103;DHT22;38101;53.126;6.878;2022-12-18T16:34:48;-1.10;99.90
52103;DHT22;38101;53.126;6.878;2022-12-18T16:37:15;-1.10;99.90
52103;DHT22;38101;53.126;6.878;2022-12-18T16:39:41;-1.10;99.90
52103;DHT22;38101;53.126;6.878;2022-12-18T16:42:19;-1.10;99.90
52103;DHT22;38101;53.126;6.878;2022-12-18T16:44:47;-1.10;99.90
52103;DHT22;38101;53.126;6.878;2022-12-18T16:47:13;-1.00;99.90
52103;DHT22;38101;53.126;6.878;2022-12-18T16:49:39;-1.10;99.90
52103;DHT22;38101;53.126;6.878;2022-12-18T16:52:06;-1.00;99.90
52103;DHT22;38101;53.126;6.878;2022-12-18T16:54:32;-1.00;99.90
52103;DHT22;38101;53.126;6.878;2022-12-18T16:57:00;-1.00;99.90
52103;DHT22;38101;53.126;6.878;2022-12-18T16:59:26;-1.00;99.90
52103;DHT22;38101;53.126;6.878;2022-12-18T17:01:52;-1.00;99.90
52103;DHT22;38101;53.126;6.878;2022-12-18T17:04:18;-1.00;99.90
52103;DHT22;38101;53.126;6.878;2022-12-18T17:06:44;-1.00;99.90
52103;DHT22;38101;53.126;6.878;2022-12-18T17:09:14;-0.90;99.90
52103;DHT22;38101;53.126;6.878;2022-12-18T17:11:40;-0.90;99.90
52103;DHT22;38101;53.126;6.878;2022-12-18T17:14:12;-0.90;99.90
52103;DHT22;38101;53.126;6.878;2022-12-18T17:16:39;-0.90;99.90
52103;DHT22;38101;53.126;6.878;2022-12-18T17:19:05;-0.90;99.90
52103;DHT22;38101;53.126;6.878;2022-12-18T17:21:31;-0.80;99.90
52103;DHT22;38101;53.126;6.878;2022-12-18T17:23:59;-0.80;99.90
52103;DHT22;38101;53.126;6.878;2022-12-18T17:26:25;-0.80;99.90
52103;DHT22;38101;53.126;6.878;2022-12-18T17:28:51;-0.80;99.90
52103;DHT22;38101;53.126;6.878;2022-12-18T17:31:19;-0.80;99.90